Terminal Aerodrome Forecast
Issued by NWS

Home | Current Version | Previous Version | Text Only | Print | Product List | Glossary On
Versions: 1 2 3 4 5 6 7 8 9 10 11 12 13 14 15 16 17
615
FTUS45 KABQ 071729
TAFLVS
TAF
KLVS 071729Z 0718/0818 27016G24KT P6SM FEW050
     FM080000 10012KT P6SM FEW050
     FM080600 09008KT P6SM BKN050
     FM081100 17010KT P6SM OVC025
      TEMPO 0812/0815 2SM BR OVC010=

USA.gov is the U.S. government's official web portal to all federal, state and local government web resources and services.